sensor_id;sensor_type;location;lat;lon;timestamp;pressure;altitude;pressure_sealevel;temperature;humidity
76060;BME280;64759;52.220;5.170;2023-05-07T00:00:33;101613.22;;;15.30;84.27
76060;BME280;64759;52.220;5.170;2023-05-07T00:02:59;101611.09;;;15.26;84.35
76060;BME280;64759;52.220;5.170;2023-05-07T00:05:25;101611.16;;;15.16;84.71
76060;BME280;64759;52.220;5.170;2023-05-07T00:07:51;101614.81;;;15.23;84.74
76060;BME280;64759;52.220;5.170;2023-05-07T00:10:18;101621.94;;;15.21;84.72
76060;BME280;64759;52.220;5.170;2023-05-07T00:12:44;101617.72;;;15.20;84.65
76060;BME280;64759;52.220;5.170;2023-05-07T00:15:09;101613.16;;;15.22;84.59
76060;BME280;64759;52.220;5.170;2023-05-07T00:17:35;101613.75;;;15.16;84.98
76060;BME280;64759;52.220;5.170;2023-05-07T00:20:01;101611.97;;;15.17;84.79
76060;BME280;64759;52.220;5.170;2023-05-07T00:22:26;101609.16;;;15.10;85.19
76060;BME280;64759;52.220;5.170;2023-05-07T00:24:53;101604.31;;;15.15;84.97
76060;BME280;64759;52.220;5.170;2023-05-07T00:27:18;101615.09;;;15.20;84.71
76060;BME280;64759;52.220;5.170;2023-05-07T00:29:43;101610.19;;;15.17;84.75
76060;BME280;64759;52.220;5.170;2023-05-07T00:32:09;101609.00;;;15.12;85.13
76060;BME280;64759;52.220;5.170;2023-05-07T00:34:34;101607.22;;;15.12;84.95
76060;BME280;64759;52.220;5.170;2023-05-07T00:37:01;101611.00;;;15.18;84.88
76060;BME280;64759;52.220;5.170;2023-05-07T00:39:26;101615.25;;;15.19;84.86
76060;BME280;64759;52.220;5.170;2023-05-07T00:41:52;101609.91;;;15.20;84.60
76060;BME280;64759;52.220;5.170;2023-05-07T00:44:17;101608.78;;;15.23;84.65
76060;BME280;64759;52.220;5.170;2023-05-07T00:46:44;101605.63;;;15.19;84.86
76060;BME280;64759;52.220;5.170;2023-05-07T00:49:10;101598.16;;;15.24;84.58
76060;BME280;64759;52.220;5.170;2023-05-07T00:51:36;101598.78;;;15.18;84.75
76060;BME280;64759;52.220;5.170;2023-05-07T00:54:02;101601.69;;;15.15;84.91
76060;BME280;64759;52.220;5.170;2023-05-07T00:56:28;101604.38;;;15.23;84.36
76060;BME280;64759;52.220;5.170;2023-05-07T00:58:54;101592.09;;;15.16;84.63
76060;BME280;64759;52.220;5.170;2023-05-07T01:01:20;101596.63;;;15.14;84.76
76060;BME280;64759;52.220;5.170;2023-05-07T01:03:45;101602.38;;;15.17;84.74
76060;BME280;64759;52.220;5.170;2023-05-07T01:06:12;101602.53;;;15.16;84.75
76060;BME280;64759;52.220;5.170;2023-05-07T01:08:39;101599.03;;;15.07;84.70
76060;BME280;64759;52.220;5.170;2023-05-07T01:11:07;101603.66;;;15.13;84.68
76060;BME280;64759;52.220;5.170;2023-05-07T01:13:34;101608.03;;;15.13;84.79
76060;BME280;64759;52.220;5.170;2023-05-07T01:16:01;101612.13;;;15.15;84.43
76060;BME280;64759;52.220;5.170;2023-05-07T01:18:27;101605.28;;;15.14;84.56
76060;BME280;64759;52.220;5.170;2023-05-07T01:20:56;101607.31;;;15.02;84.85
76060;BME280;64759;52.220;5.170;2023-05-07T01:23:24;101607.22;;;15.12;84.67
76060;BME280;64759;52.220;5.170;2023-05-07T01:25:54;101592.22;;;15.14;84.52
76060;BME280;64759;52.220;5.170;2023-05-07T01:28:22;101595.50;;;15.16;84.78
76060;BME280;64759;52.220;5.170;2023-05-07T01:30:54;101590.81;;;15.20;84.36
76060;BME280;64759;52.220;5.170;2023-05-07T01:33:22;101591.13;;;14.99;84.58
76060;BME280;64759;52.220;5.170;2023-05-07T01:35:51;101593.44;;;15.02;84.74
76060;BME280;64759;52.220;5.170;2023-05-07T01:38:18;101592.25;;;14.96;85.52
76060;BME280;64759;52.220;5.170;2023-05-07T01:40:44;101596.06;;;15.02;85.43
76060;BME280;64759;52.220;5.170;2023-05-07T01:43:11;101596.56;;;15.05;85.43
76060;BME280;64759;52.220;5.170;2023-05-07T01:45:38;101593.34;;;15.12;85.43
76060;BME280;64759;52.220;5.170;2023-05-07T01:48:04;101585.22;;;15.15;85.49
76060;BME280;64759;52.220;5.170;2023-05-07T01:50:30;101591.56;;;15.12;85.50
76060;BME280;64759;52.220;5.170;2023-05-07T01:52:55;101585.31;;;15.05;86.02
76060;BME280;64759;52.220;5.170;2023-05-07T01:55:22;101599.84;;;15.07;85.93
76060;BME280;64759;52.220;5.170;2023-05-07T01:57:48;101601.78;;;15.05;85.87
76060;BME280;64759;52.220;5.170;2023-05-07T02:00:13;101598.84;;;15.08;85.71
76060;BME280;64759;52.220;5.170;2023-05-07T02:02:42;101609.63;;;15.05;85.54
76060;BME280;64759;52.220;5.170;2023-05-07T02:05:15;101607.75;;;14.98;85.53
76060;BME280;64759;52.220;5.170;2023-05-07T02:07:42;101598.00;;;15.00;85.54
76060;BME280;64759;52.220;5.170;2023-05-07T02:10:08;101603.41;;;15.06;85.44
76060;BME280;64759;52.220;5.170;2023-05-07T02:12:33;101596.63;;;15.14;85.15
76060;BME280;64759;52.220;5.170;2023-05-07T02:14:59;101594.94;;;15.04;85.25
76060;BME280;64759;52.220;5.170;2023-05-07T02:17:24;101588.69;;;14.97;85.44
76060;BME280;64759;52.220;5.170;2023-05-07T02:19:51;101579.91;;;14.98;85.42
76060;BME280;64759;52.220;5.170;2023-05-07T02:22:17;101586.72;;;14.99;85.27
76060;BME280;64759;52.220;5.170;2023-05-07T02:24:43;101585.41;;;14.95;85.44
76060;BME280;64759;52.220;5.170;2023-05-07T02:27:10;101582.22;;;14.84;85.95
76060;BME280;64759;52.220;5.170;2023-05-07T02:29:36;101585.78;;;14.83;85.84
76060;BME280;64759;52.220;5.170;2023-05-07T02:32:02;101592.34;;;14.87;85.65
76060;BME280;64759;52.220;5.170;2023-05-07T02:34:27;101589.34;;;14.82;85.62
76060;BME280;64759;52.220;5.170;2023-05-07T02:36:53;101593.16;;;14.87;85.81
76060;BME280;64759;52.220;5.170;2023-05-07T02:39:22;101596.59;;;14.88;85.74
76060;BME280;64759;52.220;5.170;2023-05-07T02:41:47;101595.19;;;14.93;85.77
76060;BME280;64759;52.220;5.170;2023-05-07T02:44:13;101590.00;;;15.01;85.57
76060;BME280;64759;52.220;5.170;2023-05-07T02:46:38;101590.53;;;15.05;85.29
76060;BME280;64759;52.220;5.170;2023-05-07T02:49:08;101590.38;;;15.06;84.86
76060;BME280;64759;52.220;5.170;2023-05-07T02:51:33;101595.09;;;15.03;85.36
76060;BME280;64759;52.220;5.170;2023-05-07T02:54:02;101594.63;;;15.07;84.92
76060;BME280;64759;52.220;5.170;2023-05-07T02:56:28;101588.88;;;15.04;84.99
76060;BME280;64759;52.220;5.170;2023-05-07T02:58:53;101593.34;;;15.12;84.98
76060;BME280;64759;52.220;5.170;2023-05-07T03:01:21;101593.88;;;15.15;85.05
76060;BME280;64759;52.220;5.170;2023-05-07T03:04:02;101594.53;;;15.17;84.86
76060;BME280;64759;52.220;5.170;2023-05-07T03:06:28;101596.19;;;15.18;84.62
76060;BME280;64759;52.220;5.170;2023-05-07T03:08:54;101596.56;;;15.23;84.61
76060;BME280;64759;52.220;5.170;2023-05-07T03:11:20;101590.66;;;15.21;84.57
76060;BME280;64759;52.220;5.170;2023-05-07T03:13:45;101585.94;;;15.25;84.38
76060;BME280;64759;52.220;5.170;2023-05-07T03:16:12;101580.56;;;15.26;84.25
76060;BME280;64759;52.220;5.170;2023-05-07T03:18:37;101584.00;;;15.27;84.14
76060;BME280;64759;52.220;5.170;2023-05-07T03:21:02;101586.78;;;15.25;84.08
76060;BME280;64759;52.220;5.170;2023-05-07T03:23:28;101581.84;;;15.22;83.94
76060;BME280;64759;52.220;5.170;2023-05-07T03:25:53;101580.91;;;15.23;83.96
76060;BME280;64759;52.220;5.170;2023-05-07T03:28:19;101578.41;;;15.22;84.14
76060;BME280;64759;52.220;5.170;2023-05-07T03:30:50;101581.56;;;15.25;83.89
76060;BME280;64759;52.220;5.170;2023-05-07T03:33:16;101571.94;;;15.26;83.96
76060;BME280;64759;52.220;5.170;2023-05-07T03:35:41;101580.56;;;15.26;83.90
76060;BME280;64759;52.220;5.170;2023-05-07T03:38:07;101595.19;;;15.19;84.21
76060;BME280;64759;52.220;5.170;2023-05-07T03:40:35;101582.97;;;15.20;84.31
76060;BME280;64759;52.220;5.170;2023-05-07T03:43:02;101582.25;;;15.10;84.41
76060;BME280;64759;52.220;5.170;2023-05-07T03:45:30;101588.78;;;15.14;84.40
76060;BME280;64759;52.220;5.170;2023-05-07T03:48:05;101578.00;;;15.08;84.58
76060;BME280;64759;52.220;5.170;2023-05-07T03:50:31;101582.72;;;15.05;84.84
76060;BME280;64759;52.220;5.170;2023-05-07T03:52:56;101586.50;;;15.11;84.54
76060;BME280;64759;52.220;5.170;2023-05-07T03:55:22;101593.34;;;15.12;84.56
76060;BME280;64759;52.220;5.170;2023-05-07T03:57:53;101591.28;;;15.15;84.66
76060;BME280;64759;52.220;5.170;2023-05-07T04:00:19;101593.06;;;15.15;84.59
76060;BME280;64759;52.220;5.170;2023-05-07T04:02:48;101591.75;;;15.19;84.54
76060;BME280;64759;52.220;5.170;2023-05-07T04:05:17;101596.69;;;15.22;84.36
76060;BME280;64759;52.220;5.170;2023-05-07T04:07:45;101598.09;;;15.16;84.41
76060;BME280;64759;52.220;5.170;2023-05-07T04:10:12;101607.22;;;15.12;84.68
76060;BME280;64759;52.220;5.170;2023-05-07T04:12:41;101597.97;;;15.18;84.19
76060;BME280;64759;52.220;5.170;2023-05-07T04:15:09;101605.28;;;15.14;84.31
76060;BME280;64759;52.220;5.170;2023-05-07T04:17:35;101610.66;;;15.13;84.39
76060;BME280;64759;52.220;5.170;2023-05-07T04:20:02;101603.56;;;15.05;84.62
76060;BME280;64759;52.220;5.170;2023-05-07T04:22:30;101599.78;;;14.99;84.78
76060;BME280;64759;52.220;5.170;2023-05-07T04:24:55;101599.13;;;14.97;84.92
76060;BME280;64759;52.220;5.170;2023-05-07T04:27:21;101604.16;;;14.99;84.70
76060;BME280;64759;52.220;5.170;2023-05-07T04:29:47;101607.09;;;14.96;85.06
76060;BME280;64759;52.220;5.170;2023-05-07T04:32:13;101604.69;;;15.02;84.61
76060;BME280;64759;52.220;5.170;2023-05-07T04:34:39;101610.00;;;14.93;84.93
76060;BME280;64759;52.220;5.170;2023-05-07T04:37:06;101610.50;;;14.96;84.87
76060;BME280;64759;52.220;5.170;2023-05-07T04:39:32;101615.88;;;14.95;85.28
76060;BME280;64759;52.220;5.170;2023-05-07T04:41:58;101608.22;;;14.93;85.36
76060;BME280;64759;52.220;5.170;2023-05-07T04:44:24;101600.41;;;14.93;85.10
76060;BME280;64759;52.220;5.170;2023-05-07T04:46:50;101601.19;;;14.94;85.19
76060;BME280;64759;52.220;5.170;2023-05-07T04:49:15;101607.47;;;15.01;84.99
76060;BME280;64759;52.220;5.170;2023-05-07T04:51:42;101611.25;;;15.06;84.79
76060;BME280;64759;52.220;5.170;2023-05-07T04:54:09;101607.66;;;15.07;84.72
76060;BME280;64759;52.220;5.170;2023-05-07T04:56:35;101610.44;;;15.06;84.64
76060;BME280;64759;52.220;5.170;2023-05-07T04:59:01;101604.41;;;15.05;84.54
76060;BME280;64759;52.220;5.170;2023-05-07T05:01:27;101609.09;;;15.02;84.40
76060;BME280;64759;52.220;5.170;2023-05-07T05:03:53;101613.94;;;14.97;84.41
76060;BME280;64759;52.220;5.170;2023-05-07T05:06:19;101617.53;;;14.96;84.68
76060;BME280;64759;52.220;5.170;2023-05-07T05:08:45;101621.25;;;14.93;84.62
76060;BME280;64759;52.220;5.170;2023-05-07T05:11:11;101624.44;;;14.87;84.86
76060;BME280;64759;52.220;5.170;2023-05-07T05:13:37;101622.66;;;14.88;85.01
76060;BME280;64759;52.220;5.170;2023-05-07T05:16:09;101623.03;;;14.93;nan
76060;BME280;64759;52.220;5.170;2023-05-07T05:18:36;101628.72;;;14.88;84.82
76060;BME280;64759;52.220;5.170;2023-05-07T05:21:02;101631.16;;;14.90;84.88
76060;BME280;64759;52.220;5.170;2023-05-07T05:23:28;101634.44;;;14.92;84.74
76060;BME280;64759;52.220;5.170;2023-05-07T05:25:57;101626.75;;;14.90;84.91
76060;BME280;64759;52.220;5.170;2023-05-07T05:28:24;101617.16;;;14.91;85.00
76060;BME280;64759;52.220;5.170;2023-05-07T05:30:50;101635.41;;;14.91;84.78
76060;BME280;64759;52.220;5.170;2023-05-07T05:33:16;101634.44;;;14.92;84.63
76060;BME280;64759;52.220;5.170;2023-05-07T05:35:42;101633.47;;;14.93;84.71
76060;BME280;64759;52.220;5.170;2023-05-07T05:38:10;101633.19;;;14.78;85.10
76060;BME280;64759;52.220;5.170;2023-05-07T05:40:37;101638.47;;;14.86;84.90
76060;BME280;64759;52.220;5.170;2023-05-07T05:43:02;101647.53;;;14.82;85.09
76060;BME280;64759;52.220;5.170;2023-05-07T05:45:29;101653.28;;;14.86;85.03
76060;BME280;64759;52.220;5.170;2023-05-07T05:47:56;101643.72;;;14.77;85.40
76060;BME280;64759;52.220;5.170;2023-05-07T05:50:23;101645.16;;;14.89;84.63
76060;BME280;64759;52.220;5.170;2023-05-07T05:52:49;101645.22;;;14.79;84.75
76060;BME280;64759;52.220;5.170;2023-05-07T05:55:16;101651.06;;;14.91;85.04
76060;BME280;64759;52.220;5.170;2023-05-07T05:57:41;101648.38;;;14.83;85.19
76060;BME280;64759;52.220;5.170;2023-05-07T06:00:09;101648.56;;;14.89;85.10
76060;BME280;64759;52.220;5.170;2023-05-07T06:02:44;101647.69;;;14.98;85.17
76060;BME280;64759;52.220;5.170;2023-05-07T06:05:11;101654.78;;;15.06;84.95
76060;BME280;64759;52.220;5.170;2023-05-07T06:07:36;101663.34;;;14.98;85.29
76060;BME280;64759;52.220;5.170;2023-05-07T06:10:02;101663.34;;;14.98;85.50
76060;BME280;64759;52.220;5.170;2023-05-07T06:12:30;101673.09;;;14.96;86.10
76060;BME280;64759;52.220;5.170;2023-05-07T06:14:55;101673.78;;;14.81;86.43
76060;BME280;64759;52.220;5.170;2023-05-07T06:17:21;101683.75;;;15.03;86.55
76060;BME280;64759;52.220;5.170;2023-05-07T06:19:49;101674.28;;;15.02;86.91
76060;BME280;64759;52.220;5.170;2023-05-07T06:22:17;101674.91;;;14.96;87.49
76060;BME280;64759;52.220;5.170;2023-05-07T06:24:43;101678.69;;;14.84;89.02
76060;BME280;64759;52.220;5.170;2023-05-07T06:27:09;101679.56;;;14.92;88.54
76060;BME280;64759;52.220;5.170;2023-05-07T06:29:34;101689.19;;;14.92;89.56
76060;BME280;64759;52.220;5.170;2023-05-07T06:32:08;101682.03;;;14.94;89.42
76060;BME280;64759;52.220;5.170;2023-05-07T06:34:33;101683.00;;;14.93;89.68
76060;BME280;64759;52.220;5.170;2023-05-07T06:37:00;101679.03;;;14.89;89.83
76060;BME280;64759;52.220;5.170;2023-05-07T06:39:42;101683.53;;;14.79;90.73
76060;BME280;64759;52.220;5.170;2023-05-07T06:42:08;101683.00;;;14.75;90.84
76060;BME280;64759;52.220;5.170;2023-05-07T06:44:39;101680.22;;;14.77;91.28
76060;BME280;64759;52.220;5.170;2023-05-07T06:47:08;101693.34;;;14.85;91.18
76060;BME280;64759;52.220;5.170;2023-05-07T06:49:34;101680.78;;;14.98;91.10
76060;BME280;64759;52.220;5.170;2023-05-07T06:52:00;101684.13;;;15.08;91.03
76060;BME280;64759;52.220;5.170;2023-05-07T06:54:26;101687.16;;;15.21;91.40
76060;BME280;64759;52.220;5.170;2023-05-07T06:56:52;101686.94;;;15.32;90.62
76060;BME280;64759;52.220;5.170;2023-05-07T06:59:17;101689.63;;;15.40;90.47
76060;BME280;64759;52.220;5.170;2023-05-07T07:01:44;101691.25;;;15.41;89.56
76060;BME280;64759;52.220;5.170;2023-05-07T07:04:11;101689.25;;;15.53;89.65
76060;BME280;64759;52.220;5.170;2023-05-07T07:06:39;101688.19;;;15.63;89.14
76060;BME280;64759;52.220;5.170;2023-05-07T07:09:09;101694.47;;;15.79;89.28
76060;BME280;64759;52.220;5.170;2023-05-07T07:11:34;101701.09;;;15.91;88.49
76060;BME280;64759;52.220;5.170;2023-05-07T07:14:00;101695.25;;;15.71;86.45
76060;BME280;64759;52.220;5.170;2023-05-07T07:16:27;101703.03;;;15.89;87.46
76060;BME280;64759;52.220;5.170;2023-05-07T07:18:54;101693.44;;;15.97;87.28
76060;BME280;64759;52.220;5.170;2023-05-07T07:21:21;101704.13;;;16.12;87.45
76060;BME280;64759;52.220;5.170;2023-05-07T07:23:46;101696.28;;;16.04;85.37
76060;BME280;64759;52.220;5.170;2023-05-07T07:26:12;101692.09;;;16.19;86.42
76060;BME280;64759;52.220;5.170;2023-05-07T07:28:44;101699.31;;;16.25;85.79
76060;BME280;64759;52.220;5.170;2023-05-07T07:31:11;101694.66;;;16.11;84.48
76060;BME280;64759;52.220;5.170;2023-05-07T07:33:37;101692.19;;;16.09;84.12
76060;BME280;64759;52.220;5.170;2023-05-07T07:36:05;101697.22;;;16.03;83.59
76060;BME280;64759;52.220;5.170;2023-05-07T07:38:32;101698.75;;;16.13;83.99
76060;BME280;64759;52.220;5.170;2023-05-07T07:40:58;101702.47;;;16.03;83.73
76060;BME280;64759;52.220;5.170;2023-05-07T07:43:23;101701.19;;;16.07;83.96
76060;BME280;64759;52.220;5.170;2023-05-07T07:45:49;101700.63;;;15.95;84.64
76060;BME280;64759;52.220;5.170;2023-05-07T07:48:15;101707.53;;;16.04;84.55
76060;BME280;64759;52.220;5.170;2023-05-07T07:50:42;101701.78;;;16.26;85.17
76060;BME280;64759;52.220;5.170;2023-05-07T07:53:08;101702.78;;;16.42;84.21
76060;BME280;64759;52.220;5.170;2023-05-07T07:55:38;101701.63;;;16.70;83.61
76060;BME280;64759;52.220;5.170;2023-05-07T07:58:03;101695.88;;;16.66;82.06
76060;BME280;64759;52.220;5.170;2023-05-07T08:00:29;101693.88;;;16.52;81.73
76060;BME280;64759;52.220;5.170;2023-05-07T08:02:55;101703.50;;;16.52;82.27
76060;BME280;64759;52.220;5.170;2023-05-07T08:05:26;101702.34;;;16.46;83.25
76060;BME280;64759;52.220;5.170;2023-05-07T08:07:52;101697.97;;;16.55;83.26
76060;BME280;64759;52.220;5.170;2023-05-07T08:10:23;101694.56;;;16.62;83.24
76060;BME280;64759;52.220;5.170;2023-05-07T08:12:54;101688.03;;;16.58;82.71
76060;BME280;64759;52.220;5.170;2023-05-07T08:15:19;101696.34;;;16.62;82.65
76060;BME280;64759;52.220;5.170;2023-05-07T08:17:46;101696.06;;;16.65;82.38
76060;BME280;64759;52.220;5.170;2023-05-07T08:20:13;101690.38;;;16.77;82.58
76060;BME280;64759;52.220;5.170;2023-05-07T08:22:39;101690.69;;;16.82;82.59
76060;BME280;64759;52.220;5.170;2023-05-07T08:25:05;101697.56;;;16.91;82.66
76060;BME280;64759;52.220;5.170;2023-05-07T08:27:32;101700.88;;;17.02;82.10
76060;BME280;64759;52.220;5.170;2023-05-07T08:29:57;101711.50;;;17.16;81.88
76060;BME280;64759;52.220;5.170;2023-05-07T08:32:23;101709.69;;;17.00;80.97
76060;BME280;64759;52.220;5.170;2023-05-07T08:34:49;101710.03;;;16.97;81.39
76060;BME280;64759;52.220;5.170;2023-05-07T08:37:15;101712.72;;;16.72;81.53
76060;BME280;64759;52.220;5.170;2023-05-07T08:39:41;101709.19;;;16.97;82.45
76060;BME280;64759;52.220;5.170;2023-05-07T08:42:16;101713.59;;;16.96;82.43
76060;BME280;64759;52.220;5.170;2023-05-07T08:44:44;101706.78;;;17.20;82.78
76060;BME280;64759;52.220;5.170;2023-05-07T08:47:12;101719.53;;;17.39;82.81
76060;BME280;64759;52.220;5.170;2023-05-07T08:49:38;101722.66;;;17.34;80.65
76060;BME280;64759;52.220;5.170;2023-05-07T08:52:06;101720.84;;;17.51;79.35
76060;BME280;64759;52.220;5.170;2023-05-07T08:54:33;101720.34;;;17.72;78.58
76060;BME280;64759;52.220;5.170;2023-05-07T08:57:00;101722.00;;;17.81;76.72
76060;BME280;64759;52.220;5.170;2023-05-07T08:59:27;101723.59;;;17.82;75.74
76060;BME280;64759;52.220;5.170;2023-05-07T09:01:53;101725.19;;;18.07;77.16
76060;BME280;64759;52.220;5.170;2023-05-07T09:04:19;101725.00;;;18.08;75.96
76060;BME280;64759;52.220;5.170;2023-05-07T09:06:45;101723.97;;;18.34;76.76
76060;BME280;64759;52.220;5.170;2023-05-07T09:09:16;101728.13;;;18.67;74.67
76060;BME280;64759;52.220;5.170;2023-05-07T09:11:43;101726.69;;;19.10;75.28
76060;BME280;64759;52.220;5.170;2023-05-07T09:14:12;101729.28;;;19.78;73.47
76060;BME280;64759;52.220;5.170;2023-05-07T09:16:42;101733.53;;;19.93;67.23
76060;BME280;64759;52.220;5.170;2023-05-07T09:19:08;101729.69;;;20.33;68.94
76060;BME280;64759;52.220;5.170;2023-05-07T09:21:35;101733.41;;;20.74;64.89
76060;BME280;64759;52.220;5.170;2023-05-07T09:24:05;101737.31;;;20.78;65.98
76060;BME280;64759;52.220;5.170;2023-05-07T09:26:38;101729.44;;;21.00;63.74
76060;BME280;64759;52.220;5.170;2023-05-07T09:29:06;101732.44;;;20.97;64.34
76060;BME280;64759;52.220;5.170;2023-05-07T09:31:31;101734.78;;;20.70;64.93
76060;BME280;64759;52.220;5.170;2023-05-07T09:33:57;101725.78;;;20.44;64.83
76060;BME280;64759;52.220;5.170;2023-05-07T09:36:26;101732.88;;;20.64;66.67
76060;BME280;64759;52.220;5.170;2023-05-07T09:38:52;101721.09;;;20.60;66.05
76060;BME280;64759;52.220;5.170;2023-05-07T09:41:18;101728.09;;;20.68;66.73
76060;BME280;64759;52.220;5.170;2023-05-07T09:44:10;101725.78;;;20.79;64.29
76060;BME280;64759;52.220;5.170;2023-05-07T09:46:46;101732.78;;;20.94;65.64
76060;BME280;64759;52.220;5.170;2023-05-07T09:49:23;101723.16;;;21.15;64.32
76060;BME280;64759;52.220;5.170;2023-05-07T09:51:52;101720.88;;;21.12;63.36
76060;BME280;64759;52.220;5.170;2023-05-07T09:54:21;101735.88;;;20.97;62.05
76060;BME280;64759;52.220;5.170;2023-05-07T09:56:51;101729.47;;;21.21;63.01
76060;BME280;64759;52.220;5.170;2023-05-07T09:59:20;101725.97;;;21.35;63.70
76060;BME280;64759;52.220;5.170;2023-05-07T10:01:46;101725.72;;;20.94;62.47
76060;BME280;64759;52.220;5.170;2023-05-07T10:04:13;101718.44;;;20.96;62.83
76060;BME280;64759;52.220;5.170;2023-05-07T10:06:44;101722.66;;;20.91;62.51
76060;BME280;64759;52.220;5.170;2023-05-07T10:09:12;101722.16;;;21.02;61.95
76060;BME280;64759;52.220;5.170;2023-05-07T10:11:38;101718.91;;;21.42;63.42
76060;BME280;64759;52.220;5.170;2023-05-07T10:14:05;101719.19;;;21.54;60.82
76060;BME280;64759;52.220;5.170;2023-05-07T10:16:35;101726.66;;;21.78;62.38
76060;BME280;64759;52.220;5.170;2023-05-07T10:19:03;101723.78;;;21.45;61.13
76060;BME280;64759;52.220;5.170;2023-05-07T10:21:30;101735.41;;;21.78;61.81
76060;BME280;64759;52.220;5.170;2023-05-07T10:24:05;101732.84;;;21.36;60.96
76060;BME280;64759;52.220;5.170;2023-05-07T10:26:41;101734.19;;;21.53;60.94
76060;BME280;64759;52.220;5.170;2023-05-07T10:32:34;101728.72;;;21.27;60.89
76060;BME280;64759;52.220;5.170;2023-05-07T10:35:04;101727.72;;;21.56;61.55
76060;BME280;64759;52.220;5.170;2023-05-07T10:37:32;101733.69;;;21.43;60.78
76060;BME280;64759;52.220;5.170;2023-05-07T10:39:58;101731.81;;;21.58;61.25
76060;BME280;64759;52.220;5.170;2023-05-07T10:42:27;101739.72;;;22.13;61.84
76060;BME280;64759;52.220;5.170;2023-05-07T10:44:54;101740.38;;;22.29;60.21
76060;BME280;64759;52.220;5.170;2023-05-07T10:47:25;101742.53;;;22.53;60.25
76060;BME280;64759;52.220;5.170;2023-05-07T10:52:26;101737.09;;;22.13;57.41
76060;BME280;64759;52.220;5.170;2023-05-07T10:55:21;101730.47;;;22.31;58.09
76060;BME280;64759;52.220;5.170;2023-05-07T11:00:50;101727.47;;;22.47;57.34
76060;BME280;64759;52.220;5.170;2023-05-07T11:03:24;101727.22;;;22.76;57.75
76060;BME280;64759;52.220;5.170;2023-05-07T11:06:16;101728.63;;;22.72;56.75
76060;BME280;64759;52.220;5.170;2023-05-07T11:11:19;101746.94;;;22.39;59.00
76060;BME280;64759;52.220;5.170;2023-05-07T11:13:50;101745.75;;;22.07;56.65
76060;BME280;64759;52.220;5.170;2023-05-07T11:16:33;101742.50;;;22.46;57.22
76060;BME280;64759;52.220;5.170;2023-05-07T11:19:09;101738.28;;;22.58;57.64
76060;BME280;64759;52.220;5.170;2023-05-07T11:21:41;101736.72;;;22.70;56.71
76060;BME280;64759;52.220;5.170;2023-05-07T11:24:27;101740.47;;;22.48;54.60
76060;BME280;64759;52.220;5.170;2023-05-07T11:26:57;101741.22;;;22.70;54.73
76060;BME280;64759;52.220;5.170;2023-05-07T11:29:25;101736.97;;;22.82;53.89
76060;BME280;64759;52.220;5.170;2023-05-07T11:31:56;101740.63;;;22.81;54.82
76060;BME280;64759;52.220;5.170;2023-05-07T11:34:26;101741.84;;;22.85;52.72
76060;BME280;64759;52.220;5.170;2023-05-07T11:36:55;101740.19;;;22.64;54.36
76060;BME280;64759;52.220;5.170;2023-05-07T11:39:30;101734.03;;;22.57;52.57
76060;BME280;64759;52.220;5.170;2023-05-07T11:41:57;101735.50;;;22.73;52.51
76060;BME280;64759;52.220;5.170;2023-05-07T11:44:24;101731.56;;;23.16;52.38
76060;BME280;64759;52.220;5.170;2023-05-07T11:46:49;101740.34;;;23.50;51.90
76060;BME280;64759;52.220;5.170;2023-05-07T11:49:15;101730.53;;;23.30;51.04
76060;BME280;64759;52.220;5.170;2023-05-07T11:51:41;101735.84;;;23.57;50.93
76060;BME280;64759;52.220;5.170;2023-05-07T11:54:08;101733.00;;;23.52;51.24
76060;BME280;64759;52.220;5.170;2023-05-07T11:56:34;101740.50;;;23.28;50.36
76060;BME280;64759;52.220;5.170;2023-05-07T11:59:04;101743.19;;;23.61;50.70
76060;BME280;64759;52.220;5.170;2023-05-07T12:01:29;101741.53;;;23.80;50.54
76060;BME280;64759;52.220;5.170;2023-05-07T12:03:55;101745.19;;;23.85;49.63
76060;BME280;64759;52.220;5.170;2023-05-07T12:06:20;101739.50;;;23.82;49.54
76060;BME280;64759;52.220;5.170;2023-05-07T12:08:46;101742.16;;;23.75;49.76
76060;BME280;64759;52.220;5.170;2023-05-07T12:11:24;101742.38;;;23.41;49.85
76060;BME280;64759;52.220;5.170;2023-05-07T12:13:51;101739.91;;;23.59;49.59
76060;BME280;64759;52.220;5.170;2023-05-07T12:16:17;101738.91;;;23.80;49.39
76060;BME280;64759;52.220;5.170;2023-05-07T12:18:43;101740.69;;;23.86;48.95
76060;BME280;64759;52.220;5.170;2023-05-07T12:21:09;101741.09;;;24.02;48.71
76060;BME280;64759;52.220;5.170;2023-05-07T12:23:39;101741.72;;;23.85;48.26
76060;BME280;64759;52.220;5.170;2023-05-07T12:26:05;101736.81;;;24.01;48.23
76060;BME280;64759;52.220;5.170;2023-05-07T12:28:36;101738.59;;;24.21;48.48
76060;BME280;64759;52.220;5.170;2023-05-07T12:31:03;101740.91;;;23.71;48.31
76060;BME280;64759;52.220;5.170;2023-05-07T12:33:29;101734.84;;;23.58;48.19
76060;BME280;64759;52.220;5.170;2023-05-07T12:35:56;101736.28;;;23.54;48.86
76060;BME280;64759;52.220;5.170;2023-05-07T12:38:23;101735.44;;;23.66;49.08
76060;BME280;64759;52.220;5.170;2023-05-07T12:40:50;101734.66;;;23.66;50.29
76060;BME280;64759;52.220;5.170;2023-05-07T12:43:28;101733.81;;;23.72;50.17
76060;BME280;64759;52.220;5.170;2023-05-07T12:45:56;101729.16;;;23.41;51.16
76060;BME280;64759;52.220;5.170;2023-05-07T12:48:22;101732.78;;;23.14;50.12
76060;BME280;64759;52.220;5.170;2023-05-07T12:50:52;101731.16;;;23.19;50.61
76060;BME280;64759;52.220;5.170;2023-05-07T12:53:22;101739.41;;;22.90;50.99
76060;BME280;64759;52.220;5.170;2023-05-07T12:55:50;101739.69;;;22.48;52.08
76060;BME280;64759;52.220;5.170;2023-05-07T12:58:30;101736.66;;;22.57;52.51
76060;BME280;64759;52.220;5.170;2023-05-07T13:00:58;101741.56;;;22.60;52.38
76060;BME280;64759;52.220;5.170;2023-05-07T13:05:52;101744.03;;;22.68;51.80